Time;durP1;ratioP1;P1;durP2;ratioP2;P2;SDS_P1;SDS_P2;PMS_P1;PMS_P2;Temp;Humidity;BMP_temperature;BMP_pressure;BME280_temperature;BME280_humidity;BME280_pressure;Samples;Min_cycle;Max_cycle;Signal;HPM_P1;HPM_P2
2023/03/26 00:01:14;;;;;;;13.00;9.40;;;;;;;11.85;70.50;98943.39;107962;1259;74934;-71
2023/03/26 00:03:43;;;;;;;13.30;9.50;;;;;;;11.82;70.49;98940.50;108018;1257;72850;-70
2023/03/26 00:06:12;;;;;;;14.40;10.30;;;;;;;11.81;70.54;98942.93;107888;1260;72702;-71
2023/03/26 00:08:41;;;;;;;17.80;9.90;;;;;;;11.81;70.57;98937.35;107881;1257;61214;-71
2023/03/26 00:11:09;;;;;;;16.80;10.20;;;;;;;11.81;70.60;98934.15;108070;1259;61212;-72
2023/03/26 00:13:36;;;;;;;14.50;10.20;;;;;;;11.81;70.63;98932.80;108021;1257;74750;-73
2023/03/26 00:16:04;;;;;;;15.80;10.20;;;;;;;11.82;70.72;98933.60;108017;1256;73686;-72
2023/03/26 00:18:33;;;;;;;14.30;10.10;;;;;;;11.83;70.66;98933.35;107865;1260;73995;-73
2023/03/26 00:21:03;;;;;;;15.10;10.20;;;;;;;11.85;70.53;98926.06;108104;1260;61424;-71
2023/03/26 00:23:31;;;;;;;16.40;10.00;;;;;;;11.87;70.66;98921.30;108080;1257;61157;-71
2023/03/26 00:25:59;;;;;;;15.10;10.50;;;;;;;11.88;70.64;98922.19;108020;1257;74816;-70
2023/03/26 00:28:28;;;;;;;17.20;11.50;;;;;;;11.88;70.65;98921.34;108012;1257;73749;-71
2023/03/26 00:30:59;;;;;;;15.30;10.50;;;;;;;11.88;70.62;98920.48;108051;1260;73137;-71
2023/03/26 00:33:32;;;;;;;14.40;10.30;;;;;;;11.86;70.65;98921.10;107898;1257;63029;-71
2023/03/26 00:35:59;;;;;;;16.30;10.50;;;;;;;11.85;70.75;98917.67;107826;1256;61068;-70
2023/03/26 00:38:29;;;;;;;16.50;11.80;;;;;;;11.85;70.83;98915.62;108075;1256;75801;-71
2023/03/26 00:41:04;;;;;;;15.50;11.00;;;;;;;11.86;70.74;98912.07;107851;1257;71838;-71
2023/03/26 00:43:34;;;;;;;15.40;10.80;;;;;;;11.84;70.81;98913.92;108079;1257;72069;-70
2023/03/26 00:46:05;;;;;;;15.90;11.40;;;;;;;11.83;70.89;98913.02;108066;1258;63131;-72
2023/03/26 00:48:33;;;;;;;15.10;11.20;;;;;;;11.83;70.92;98917.77;108087;1257;61296;-71
2023/03/26 00:51:14;;;;;;;16.40;11.10;;;;;;;11.83;71.07;98914.48;108043;1257;75553;-72
2023/03/26 00:53:41;;;;;;;16.70;11.50;;;;;;;11.84;71.15;98920.61;108053;1259;71590;-71
2023/03/26 00:56:09;;;;;;;15.20;11.00;;;;;;;11.87;71.11;98914.09;108100;1256;71794;-71
2023/03/26 00:58:37;;;;;;;17.50;11.40;;;;;;;11.89;71.27;98915.14;108077;1256;62171;-70
2023/03/26 01:01:12;;;;;;;16.20;12.00;;;;;;;11.91;71.17;98913.81;108138;1254;60546;-71
2023/03/26 01:03:40;;;;;;;17.70;11.90;;;;;;;11.93;71.15;98909.20;107863;1257;75379;-71
2023/03/26 01:06:36;;;;;;;16.10;11.50;;;;;;;11.94;71.19;98908.44;108140;1257;72100;-70
2023/03/26 01:09:19;;;;;;;15.80;11.80;;;;;;;11.95;71.16;98900.14;108097;1257;73858;-70
2023/03/26 01:11:49;;;;;;;17.20;11.60;;;;;;;11.95;71.24;98905.86;107865;1256;61168;-72
2023/03/26 01:14:31;;;;;;;14.50;11.20;;;;;;;11.97;71.22;98902.58;107925;1257;61153;-71
2023/03/26 01:17:14;;;;;;;15.00;11.30;;;;;;;11.97;71.29;98898.72;108062;1256;74766;-71
2023/03/26 01:20:13;;;;;;;16.50;11.80;;;;;;;11.98;71.36;98898.23;108117;1254;71910;-70
2023/03/26 01:23:05;;;;;;;16.50;12.10;;;;;;;12.00;71.32;98896.60;108028;1257;73734;-72
2023/03/26 01:26:08;;;;;;;16.30;11.40;;;;;;;12.02;71.40;98894.05;108075;1257;61921;-73
2023/03/26 01:28:45;;;;;;;16.70;11.20;;;;;;;12.04;71.32;98899.20;108042;1256;61126;-71
2023/03/26 01:31:52;;;;;;;15.00;11.50;;;;;;;12.07;71.37;98895.77;107859;1257;74536;-70
2023/03/26 01:35:06;;;;;;;15.40;12.20;;;;;;;12.11;71.52;98893.73;108008;1257;72833;-72
2023/03/26 01:38:38;;;;;;;15.60;11.60;;;;;;;12.12;71.52;98889.16;108024;1257;71399;-71
2023/03/26 01:41:30;;;;;;;16.60;12.10;;;;;;;12.13;71.61;98890.15;108153;1255;62850;-72
2023/03/26 01:44:47;;;;;;;16.70;11.70;;;;;;;12.18;71.69;98889.39;108194;1256;61154;-71
2023/03/26 01:47:41;;;;;;;17.30;11.90;;;;;;;12.21;71.67;98888.55;107919;1257;75632;-71
2023/03/26 01:50:40;;;;;;;16.60;11.30;;;;;;;12.24;71.70;98888.79;107630;1257;74032;-71
2023/03/26 01:53:38;;;;;;;15.70;12.00;;;;;;;12.25;71.64;98883.88;107956;1259;72975;-71
2023/03/26 01:56:40;;;;;;;15.90;12.30;;;;;;;12.26;71.81;98881.29;107978;1257;61597;-71
2023/03/26 02:03:25;;;;;;;16.80;11.10;;;;;;;12.32;72.00;98881.29;107779;1254;79108;-72
2023/03/26 02:06:14;;;;;;;14.30;10.50;;;;;;;12.33;72.13;98876.69;107880;1260;73297;-71
2023/03/26 02:08:51;;;;;;;14.60;9.50;;;;;;;12.34;72.38;98881.17;107988;1254;73719;-71
2023/03/26 02:11:18;;;;;;;12.80;10.00;;;;;;;12.34;72.67;98882.62;107942;1257;61263;-72
2023/03/26 02:13:48;;;;;;;9.30;6.80;;;;;;;12.33;73.06;98877.98;107973;1254;62198;-72
2023/03/26 02:16:16;;;;;;;8.20;5.80;;;;;;;12.30;73.86;98882.73;107914;1257;74764;-71
2023/03/26 02:18:50;;;;;;;5.80;4.50;;;;;;;12.27;74.75;98884.63;107874;1259;74133;-73
2023/03/26 02:21:20;;;;;;;4.00;2.80;;;;;;;12.25;75.43;98895.24;108007;1254;71088;-72
2023/03/26 02:23:49;;;;;;;4.20;2.50;;;;;;;12.24;75.67;98897.89;107858;1257;61406;-72
2023/03/26 02:26:18;;;;;;;3.10;2.00;;;;;;;12.24;75.73;98899.34;108031;1254;61159;-72
2023/03/26 02:28:58;;;;;;;2.40;1.50;;;;;;;12.22;75.67;98895.80;107938;1256;75788;-72
2023/03/26 02:31:30;;;;;;;2.50;1.30;;;;;;;12.16;75.62;98906.44;107928;1257;73003;-71
2023/03/26 02:33:56;;;;;;;2.80;1.30;;;;;;;12.12;75.68;98917.67;107933;1254;72685;-72
2023/03/26 02:36:25;;;;;;;1.50;1.00;;;;;;;12.09;75.78;98913.48;107972;1254;62828;-70
2023/03/26 02:38:56;;;;;;;2.30;1.30;;;;;;;12.03;75.95;98921.40;107811;1254;61780;-73
2023/03/26 02:41:28;;;;;;;2.10;1.30;;;;;;;11.96;76.28;98920.16;107828;1256;74175;-71
2023/03/26 02:44:07;;;;;;;1.70;1.10;;;;;;;11.91;76.40;98914.73;108100;1256;72723;-72
2023/03/26 02:47:03;;;;;;;1.50;1.00;;;;;;;11.86;76.33;98920.54;107972;1254;74077;-72
2023/03/26 02:49:42;;;;;;;2.90;1.20;;;;;;;11.83;76.40;98922.49;108172;1254;61905;-72
2023/03/26 02:52:09;;;;;;;2.30;1.00;;;;;;;11.82;76.43;98926.05;108061;1254;60104;-72
2023/03/26 02:54:37;;;;;;;1.00;0.80;;;;;;;11.81;76.42;98932.33;108009;1254;75202;-73
2023/03/26 02:57:24;;;;;;;1.70;1.00;;;;;;;11.79;76.24;98941.53;108152;1254;72726;-74
2023/03/26 03:00:15;;;;;;;0.70;0.70;;;;;;;11.73;76.07;98947.70;108025;1254;72730;-72
2023/03/26 03:02:47;;;;;;;1.10;0.90;;;;;;;11.71;75.86;98956.88;104164;1254;5237718;-73
2023/03/26 03:05:31;;;;;;;1.30;0.90;;;;;;;11.63;75.74;98960.45;108135;1254;60384;-73
2023/03/26 03:08:21;;;;;;;2.80;1.20;;;;;;;11.56;75.50;98974.48;108052;1254;75877;-74
2023/03/26 03:11:11;;;;;;;1.60;0.80;;;;;;;11.54;75.37;98982.44;108147;1254;73684;-71
2023/03/26 03:13:48;;;;;;;2.10;1.00;;;;;;;11.51;75.27;98987.41;108164;1254;72583;-72
2023/03/26 03:16:18;;;;;;;1.60;1.00;;;;;;;11.49;75.13;98998.85;108113;1254;61240;-72
2023/03/26 03:18:53;;;;;;;1.90;0.90;;;;;;;11.50;75.01;98997.92;108181;1254;61110;-72
2023/03/26 03:21:25;;;;;;;2.20;1.10;;;;;;;11.50;74.70;99001.18;108150;1254;73908;-72
2023/03/26 03:23:56;;;;;;;3.80;1.00;;;;;;;11.53;74.47;99006.36;107855;1254;73559;-73
2023/03/26 03:26:29;;;;;;;2.00;1.10;;;;;;;11.55;74.11;99018.35;108080;1258;73139;-73
2023/03/26 03:28:58;;;;;;;2.40;1.10;;;;;;;11.57;73.95;99029.44;108171;1254;62935;-72
2023/03/26 03:31:25;;;;;;;3.60;2.20;;;;;;;11.55;73.73;99028.19;107919;1257;61931;-73
2023/03/26 03:33:56;;;;;;;1.90;1.10;;;;;;;11.53;73.60;99033.70;108051;1254;72861;-72
2023/03/26 03:36:29;;;;;;;1.60;1.00;;;;;;;11.51;73.43;99037.89;107975;1254;71935;-72
2023/03/26 03:39:01;;;;;;;2.50;1.40;;;;;;;11.49;73.30;99038.67;108078;1254;71474;-72
2023/03/26 03:41:32;;;;;;;2.30;1.10;;;;;;;11.50;73.26;99043.48;108001;1254;63095;-73
2023/03/26 03:44:01;;;;;;;1.60;1.00;;;;;;;11.50;73.10;99045.88;108120;1254;61420;-73
2023/03/26 03:46:30;;;;;;;2.20;1.30;;;;;;;11.48;73.15;99055.13;108117;1254;74695;-73
2023/03/26 03:48:59;;;;;;;2.60;1.30;;;;;;;11.47;73.02;99057.96;108078;1254;73665;-73
2023/03/26 03:51:30;;;;;;;3.50;1.80;;;;;;;11.45;72.98;99060.44;108085;1254;72720;-73
2023/03/26 03:54:02;;;;;;;5.40;3.00;;;;;;;11.40;72.94;99059.45;108087;1254;61138;-73
2023/03/26 03:56:54;;;;;;;3.90;2.00;;;;;;;11.37;73.04;99055.56;108125;1254;61131;-73
2023/03/26 03:59:25;;;;;;;2.20;1.40;;;;;;;11.36;72.84;99058.04;108048;1254;75722;-73
2023/03/26 04:01:52;;;;;;;1.70;1.10;;;;;;;11.34;72.73;99064.46;108119;1254;73186;-72
2023/03/26 04:04:48;;;;;;;3.00;1.30;;;;;;;11.32;72.57;99065.52;107997;1257;72542;-73
2023/03/26 04:07:18;;;;;;;1.60;1.10;;;;;;;11.29;72.41;99065.95;107860;1257;61959;-72
2023/03/26 04:10:07;;;;;;;2.80;1.20;;;;;;;11.27;72.04;99071.30;108035;1254;59500;-72
2023/03/26 04:13:16;;;;;;;1.30;1.00;;;;;;;11.30;71.72;99073.56;107909;1257;73235;-74
2023/03/26 04:16:07;;;;;;;3.70;1.30;;;;;;;11.32;71.39;99079.80;108012;1259;72484;-73
2023/03/26 04:18:40;;;;;;;2.70;1.20;;;;;;;11.32;71.12;99075.66;108000;1259;71722;-72
2023/03/26 04:21:14;;;;;;;3.30;1.20;;;;;;;11.30;70.79;99082.66;108103;1257;61154;-71
2023/03/26 04:23:41;;;;;;;3.30;1.10;;;;;;;11.27;70.59;99082.87;108138;1254;61344;-73
2023/03/26 04:26:35;;;;;;;2.80;1.20;;;;;;;11.26;70.16;99081.93;107891;1254;75885;-73
2023/03/26 04:29:10;;;;;;;2.00;1.10;;;;;;;11.25;69.87;99089.00;108156;1254;72053;-73
2023/03/26 04:31:38;;;;;;;2.80;1.50;;;;;;;11.23;69.77;99099.36;107996;1254;74221;-73
2023/03/26 04:34:12;;;;;;;3.60;1.20;;;;;;;11.20;69.50;99104.55;108018;1254;62916;-73
2023/03/26 04:36:47;;;;;;;2.30;1.20;;;;;;;11.13;69.45;99113.81;107882;1256;61244;-73
2023/03/26 04:39:16;;;;;;;3.10;1.40;;;;;;;11.12;69.47;99115.38;107962;1254;75935;-73
2023/03/26 04:42:02;;;;;;;3.40;1.30;;;;;;;11.14;69.56;99113.00;108014;1254;73104;-73
2023/03/26 04:44:49;;;;;;;2.60;1.40;;;;;;;11.18;69.60;99120.84;108136;1258;73640;-73
2023/03/26 04:47:17;;;;;;;2.40;1.30;;;;;;;11.20;69.59;99121.34;108103;1254;62807;-73
2023/03/26 04:49:46;;;;;;;2.90;1.30;;;;;;;11.18;69.49;99122.64;108178;1254;61129;-73
2023/03/26 04:52:15;;;;;;;3.10;1.60;;;;;;;11.18;69.59;99125.31;107978;1256;73377;-72
2023/03/26 04:55:37;;;;;;;3.20;1.60;;;;;;;11.21;69.58;99123.80;108068;1257;74263;-73
2023/03/26 04:58:12;;;;;;;4.10;1.80;;;;;;;11.29;69.51;99122.23;108074;1259;73727;-73
2023/03/26 05:00:51;;;;;;;3.60;1.90;;;;;;;11.37;69.14;99128.17;108012;1254;62984;-73
2023/03/26 05:03:19;;;;;;;4.10;1.60;;;;;;;11.43;68.76;99128.53;108172;1254;61129;-73
2023/03/26 05:05:48;;;;;;;3.40;1.90;;;;;;;11.50;68.49;99129.74;108116;1254;75499;-73
2023/03/26 05:08:15;;;;;;;4.30;2.00;;;;;;;11.54;68.36;99132.65;108029;1254;72588;-73
2023/03/26 05:10:44;;;;;;;3.50;1.80;;;;;;;11.56;68.14;99133.48;108069;1257;72833;-74
2023/03/26 05:13:23;;;;;;;4.20;1.90;;;;;;;11.59;68.14;99133.30;108135;1254;61949;-73
2023/03/26 05:15:54;;;;;;;5.00;2.20;;;;;;;11.68;68.21;99143.59;108217;1254;61115;-73
2023/03/26 05:18:39;;;;;;;2.40;1.40;;;;;;;11.77;68.08;99149.53;108119;1254;74823;-73
2023/03/26 05:21:06;;;;;;;3.70;1.60;;;;;;;11.81;67.85;99154.99;108068;1254;73075;-73
2023/03/26 05:23:39;;;;;;;3.90;1.80;;;;;;;11.83;67.87;99155.83;108107;1259;72382;-71
2023/03/26 05:26:28;;;;;;;4.90;1.90;;;;;;;11.81;68.00;99156.12;108089;1256;61844;-72
2023/03/26 05:28:55;;;;;;;4.10;2.40;;;;;;;11.78;68.10;99157.36;108035;1254;61300;-72
2023/03/26 05:31:29;;;;;;;4.60;2.90;;;;;;;11.78;68.27;99157.66;108105;1254;74914;-71
2023/03/26 05:33:59;;;;;;;4.10;2.60;;;;;;;11.79;68.39;99158.75;108088;1254;71677;-71
2023/03/26 05:36:33;;;;;;;5.80;3.50;;;;;;;11.77;68.54;99163.45;108191;1254;72426;-71
2023/03/26 05:39:25;;;;;;;4.90;2.60;;;;;;;11.84;68.59;99156.67;108133;1254;63146;-72
2023/03/26 05:41:56;;;;;;;6.60;2.70;;;;;;;11.89;68.50;99156.43;107965;1254;61886;-73
2023/03/26 05:44:29;;;;;;;4.00;2.20;;;;;;;11.90;68.33;99160.24;108201;1254;75910;-72
2023/03/26 05:46:59;;;;;;;4.70;2.20;;;;;;;11.92;68.18;99166.69;107995;1257;73616;-72
2023/03/26 05:49:40;;;;;;;3.70;2.10;;;;;;;11.96;67.99;99172.05;108095;1256;72916;-72
2023/03/26 05:52:48;;;;;;;4.20;1.80;;;;;;;12.05;67.77;99177.33;107850;1254;63310;-72
2023/03/26 05:55:21;;;;;;;3.70;1.80;;;;;;;12.06;67.12;99185.55;108126;1254;60939;-72
2023/03/26 05:58:17;;;;;;;4.70;1.80;;;;;;;11.96;66.77;99182.06;107562;1254;73794;-73
2023/03/26 06:01:15;;;;;;;4.90;2.00;;;;;;;11.91;66.56;99183.88;108168;1254;73809;-73
2023/03/26 06:04:02;;;;;;;3.20;1.70;;;;;;;11.85;66.43;99181.81;108035;1255;73762;-72
2023/03/26 06:06:35;;;;;;;3.60;1.50;;;;;;;11.83;66.33;99183.86;108082;1254;62407;-72
2023/03/26 06:09:03;;;;;;;4.00;1.50;;;;;;;11.83;65.93;99190.02;108126;1256;61228;-73
2023/03/26 06:11:30;;;;;;;4.90;1.80;;;;;;;11.84;66.04;99185.29;108174;1254;72825;-72
2023/03/26 06:13:59;;;;;;;4.00;1.70;;;;;;;11.88;66.15;99184.44;108017;1254;74019;-73
2023/03/26 06:16:26;;;;;;;4.50;2.40;;;;;;;11.87;66.23;99183.80;107985;1256;73429;-72
2023/03/26 06:19:03;;;;;;;6.40;2.60;;;;;;;11.84;65.92;99183.89;107882;1257;61902;-73
2023/03/26 06:21:49;;;;;;;5.80;2.20;;;;;;;11.80;65.93;99180.31;108111;1254;61208;-72
2023/03/26 06:24:21;;;;;;;4.00;1.70;;;;;;;11.77;65.81;99192.11;108186;1254;74091;-71
2023/03/26 06:27:06;;;;;;;4.20;2.00;;;;;;;11.74;65.75;99187.19;108160;1254;73579;-72
2023/03/26 06:29:50;;;;;;;3.00;1.40;;;;;;;11.80;65.74;99184.45;108120;1259;73653;-73
2023/03/26 06:32:37;;;;;;;3.10;1.70;;;;;;;11.87;65.43;99182.47;107803;1254;61017;-73
2023/03/26 06:35:10;;;;;;;4.30;1.50;;;;;;;11.89;65.21;99184.89;108188;1258;61119;-73
2023/03/26 06:37:37;;;;;;;3.70;1.80;;;;;;;11.90;64.85;99186.15;108103;1254;75925;-73
2023/03/26 06:40:05;;;;;;;4.90;1.60;;;;;;;11.89;64.63;99193.08;108045;1259;73536;-72
2023/03/26 06:42:51;;;;;;;3.80;1.60;;;;;;;11.90;64.52;99192.68;108073;1257;72144;-72
2023/03/26 06:46:03;;;;;;;3.50;1.70;;;;;;;11.97;64.25;99196.33;108117;1257;61202;-73
2023/03/26 06:48:54;;;;;;;4.50;1.70;;;;;;;12.02;63.86;99197.11;107796;1254;61625;-72
2023/03/26 06:51:27;;;;;;;3.30;1.60;;;;;;;12.07;63.77;99198.77;108102;1257;75482;-72
2023/03/26 06:54:06;;;;;;;3.60;1.40;;;;;;;12.15;63.55;99197.14;108098;1257;72201;-73
2023/03/26 06:56:53;;;;;;;3.40;1.60;;;;;;;12.29;63.35;99199.03;108083;1254;73388;-72
2023/03/26 06:59:39;;;;;;;3.60;1.40;;;;;;;12.40;62.97;99200.83;108083;1254;61943;-71
2023/03/26 07:02:39;;;;;;;4.30;1.50;;;;;;;12.50;62.50;99200.35;107796;1255;61248;-72
2023/03/26 07:05:24;;;;;;;2.90;1.50;;;;;;;12.55;61.86;99196.02;108132;1257;74054;-71
2023/03/26 07:08:10;;;;;;;3.70;1.80;;;;;;;12.59;61.51;99198.69;108124;1256;73824;-73
2023/03/26 07:10:56;;;;;;;3.50;1.50;;;;;;;12.61;60.66;99194.26;108133;1256;73562;-72
2023/03/26 07:13:46;;;;;;;3.40;1.30;;;;;;;12.61;60.44;99194.90;108117;1255;62177;-73
2023/03/26 07:16:32;;;;;;;2.60;1.30;;;;;;;12.67;60.76;99195.84;108108;1257;61339;-73
2023/03/26 07:19:32;;;;;;;3.40;1.30;;;;;;;12.79;60.63;99191.63;107743;1257;75042;-73
2023/03/26 07:22:00;;;;;;;3.00;1.40;;;;;;;12.90;60.27;99190.98;107910;1257;73030;-72
2023/03/26 07:24:48;;;;;;;2.70;1.30;;;;;;;12.99;59.66;99187.44;107983;1256;73585;-73
2023/03/26 07:27:58;;;;;;;3.40;1.40;;;;;;;13.11;59.65;99189.23;108109;1256;61282;-72
2023/03/26 07:31:22;;;;;;;5.00;1.40;;;;;;;13.35;59.39;99188.39;107755;1256;61237;-72
2023/03/26 07:34:15;;;;;;;2.80;1.10;;;;;;;13.52;58.47;99188.20;107908;1257;75676;-71
2023/03/26 07:37:43;;;;;;;2.90;1.10;;;;;;;13.62;57.32;99188.70;107963;1254;73135;-73
2023/03/26 07:40:30;;;;;;;2.70;1.20;;;;;;;13.67;56.58;99192.40;108169;1254;72009;-73
2023/03/26 07:43:55;;;;;;;2.80;1.30;;;;;;;13.75;55.98;99194.61;108199;1254;61113;-74
2023/03/26 07:46:38;;;;;;;1.90;1.00;;;;;;;13.84;55.96;99197.34;108236;1254;61126;-72
2023/03/26 07:49:25;;;;;;;1.90;1.10;;;;;;;13.92;56.03;99203.29;108187;1254;75919;-71
2023/03/26 07:52:19;;;;;;;2.20;1.10;;;;;;;13.99;55.62;99208.09;107980;1254;73782;-73
2023/03/26 07:55:14;;;;;;;3.20;1.40;;;;;;;14.08;55.06;99215.16;107873;1254;73479;-73
2023/03/26 07:58:37;;;;;;;3.40;1.30;;;;;;;14.11;54.96;99206.85;108168;1254;61115;-73
2023/03/26 08:01:40;;;;;;;2.30;1.20;;;;;;;14.26;54.71;99208.12;108156;1254;61113;-72
2023/03/26 08:04:23;;;;;;;3.20;1.30;;;;;;;14.35;54.55;99213.34;108036;1254;75918;-73
2023/03/26 08:07:15;;;;;;;3.10;1.40;;;;;;;14.48;54.01;99217.09;107987;1254;73978;-73
2023/03/26 08:10:07;;;;;;;3.40;1.30;;;;;;;14.62;53.82;99217.71;108161;1254;71887;-72
2023/03/26 08:12:59;;;;;;;4.10;1.60;;;;;;;14.83;53.42;99213.94;107975;1254;61073;-72
2023/03/26 08:15:32;;;;;;;2.50;1.40;;;;;;;15.02;53.34;99209.77;108247;1254;61189;-73
2023/03/26 08:18:26;;;;;;;3.30;1.70;;;;;;;15.12;52.43;99210.82;108082;1254;74103;-72
2023/03/26 08:21:16;;;;;;;5.40;1.60;;;;;;;15.09;51.87;99201.38;108160;1254;73743;-71
2023/03/26 08:24:19;;;;;;;3.70;2.00;;;;;;;15.04;52.00;99206.41;108155;1254;72488;-72
2023/03/26 08:26:58;;;;;;;6.20;2.20;;;;;;;14.87;51.87;99218.67;108061;1254;61071;-71
2023/03/26 08:29:44;;;;;;;3.50;1.60;;;;;;;14.71;51.84;99220.14;108087;1254;61390;-71
2023/03/26 08:32:17;;;;;;;3.70;1.50;;;;;;;14.56;52.24;99216.63;108183;1254;74025;-72
2023/03/26 08:34:45;;;;;;;4.80;1.90;;;;;;;14.56;52.71;99222.29;108210;1256;72695;-72
2023/03/26 08:37:12;;;;;;;5.30;2.00;;;;;;;14.70;53.04;99223.52;108199;1254;70910;-73
2023/03/26 08:39:40;;;;;;;5.20;2.80;;;;;;;14.84;52.45;99225.08;107996;1254;61131;-73
2023/03/26 08:42:18;;;;;;;5.30;2.10;;;;;;;14.96;52.10;99223.45;108165;1254;61536;-72
2023/03/26 08:45:07;;;;;;;3.90;1.80;;;;;;;15.02;51.38;99222.83;108046;1254;74114;-73
2023/03/26 08:48:00;;;;;;;4.10;2.00;;;;;;;15.07;50.82;99217.13;108024;1254;72080;-73
2023/03/26 08:50:46;;;;;;;5.20;4.00;;;;;;;15.14;51.21;99211.08;107950;1254;72949;-73
2023/03/26 08:53:50;;;;;;;4.60;2.10;;;;;;;15.29;51.12;99213.54;108095;1254;61275;-73
2023/03/26 08:56:45;;;;;;;4.10;2.40;;;;;;;15.39;51.08;99206.92;108168;1254;61174;-73
2023/03/26 08:59:37;;;;;;;3.90;2.00;;;;;;;15.39;50.50;99205.95;108147;1254;73508;-72
2023/03/26 09:02:19;;;;;;;5.50;3.20;;;;;;;15.35;50.77;99204.31;108132;1254;73937;-73
2023/03/26 09:04:59;;;;;;;5.80;2.90;;;;;;;15.39;51.03;99205.31;108141;1255;72987;-75
2023/03/26 09:07:48;;;;;;;12.60;11.10;;;;;;;15.54;50.59;99207.77;108115;1254;61135;-73
2023/03/26 09:10:51;;;;;;;5.60;3.50;;;;;;;15.62;50.20;99204.77;108110;1254;61334;-73
2023/03/26 09:13:36;;;;;;;4.70;2.70;;;;;;;15.68;50.14;99199.69;107886;1254;74847;-73
2023/03/26 09:16:16;;;;;;;3.60;1.80;;;;;;;15.74;50.02;99200.61;108049;1254;72041;-73
2023/03/26 09:18:49;;;;;;;3.60;2.20;;;;;;;15.78;49.79;99195.45;108117;1254;71461;-73
2023/03/26 09:21:26;;;;;;;4.10;2.00;;;;;;;15.69;49.34;99199.86;108092;1254;61253;-72
2023/03/26 09:24:26;;;;;;;5.70;3.00;;;;;;;15.61;49.66;99195.01;108091;1254;61105;-73
2023/03/26 09:27:21;;;;;;;4.70;2.60;;;;;;;15.68;49.81;99197.99;108010;1254;74968;-73
2023/03/26 09:30:03;;;;;;;5.10;2.60;;;;;;;15.72;49.80;99192.86;108134;1254;72066;-72
2023/03/26 09:33:13;;;;;;;4.70;2.90;;;;;;;15.81;49.85;99191.98;108104;1254;72076;-72
2023/03/26 09:35:59;;;;;;;6.10;4.00;;;;;;;15.93;49.37;99192.27;108033;1258;61135;-73
2023/03/26 09:38:39;;;;;;;5.30;3.50;;;;;;;16.01;49.39;99188.91;108185;1254;61861;-72
2023/03/26 09:41:16;;;;;;;6.00;3.20;;;;;;;16.08;48.99;99187.66;108172;1254;73559;-72
2023/03/26 09:44:13;;;;;;;5.40;3.20;;;;;;;16.09;49.04;99180.65;108111;1254;71710;-72
2023/03/26 09:46:49;;;;;;;5.70;3.50;;;;;;;16.17;49.03;99179.80;108010;1256;72828;-72
2023/03/26 09:49:45;;;;;;;5.00;3.30;;;;;;;16.21;48.86;99178.70;108085;1254;61143;-73
2023/03/26 09:52:30;;;;;;;7.70;5.40;;;;;;;16.15;48.72;99187.28;108292;1253;61124;-72
2023/03/26 09:55:19;;;;;;;5.90;3.50;;;;;;;16.06;48.38;99186.70;108176;1254;74640;-72
2023/03/26 09:57:57;;;;;;;6.50;3.30;;;;;;;15.97;48.22;99184.65;108072;1254;71587;-72
2023/03/26 10:00:47;;;;;;;5.50;3.80;;;;;;;15.90;48.51;99177.50;107999;1254;73519;-72
2023/03/26 10:03:44;;;;;;;4.70;2.90;;;;;;;15.89;48.93;99177.00;108068;1253;61125;-73
2023/03/26 10:06:17;;;;;;;5.20;3.20;;;;;;;15.92;49.00;99174.38;107880;1259;61170;-72
2023/03/26 10:08:56;;;;;;;4.50;3.30;;;;;;;15.97;48.84;99178.34;108162;1253;74844;-72
2023/03/26 10:11:33;;;;;;;4.90;3.30;;;;;;;15.96;48.89;99182.64;108270;1254;72134;-73
2023/03/26 10:14:23;;;;;;;5.90;4.00;;;;;;;15.91;48.88;99183.52;108204;1254;73479;-73
2023/03/26 10:17:25;;;;;;;5.50;3.30;;;;;;;15.84;49.34;99185.70;108040;1256;61978;-72
2023/03/26 10:20:26;;;;;;;8.60;6.30;;;;;;;15.84;49.17;99190.63;108093;1256;61134;-71
2023/03/26 10:23:38;;;;;;;9.10;7.20;;;;;;;15.73;49.25;99190.04;108132;1254;73954;-73
2023/03/26 10:26:15;;;;;;;14.00;9.80;;;;;;;15.62;49.75;99192.66;107992;1253;74306;-73
2023/03/26 10:29:19;;;;;;;21.00;14.40;;;;;;;15.54;50.16;99192.84;108071;1256;73168;-73
2023/03/26 10:31:56;;;;;;;7.80;5.30;;;;;;;15.48;50.44;99192.09;107988;1254;61896;-71
2023/03/26 10:34:30;;;;;;;7.40;6.10;;;;;;;15.34;51.17;99194.56;108146;1253;61135;-72
2023/03/26 10:37:31;;;;;;;11.80;9.00;;;;;;;15.11;53.12;99195.58;108166;1254;74506;-73
2023/03/26 10:40:09;;;;;;;7.00;5.90;;;;;;;14.86;54.50;99195.11;107995;1254;73824;-72
2023/03/26 10:43:15;;;;;;;11.00;8.80;;;;;;;14.80;55.61;99199.20;108226;1254;73061;-70
2023/03/26 10:46:12;;;;;;;10.70;7.60;;;;;;;14.79;56.05;99197.81;108186;1254;59969;-73
2023/03/26 10:49:19;;;;;;;10.00;7.50;;;;;;;14.83;56.13;99194.30;108057;1256;61289;-73
2023/03/26 10:51:57;;;;;;;7.80;6.30;;;;;;;14.92;56.05;99196.91;108163;1257;74100;-72
2023/03/26 10:54:45;;;;;;;7.20;6.10;;;;;;;14.96;55.54;99193.23;108009;1254;72853;-72
2023/03/26 10:57:41;;;;;;;9.10;5.90;;;;;;;15.01;55.36;99191.15;108177;1254;71752;-72
2023/03/26 11:00:26;;;;;;;7.00;5.70;;;;;;;14.99;55.59;99191.23;108148;1254;61238;-71
2023/03/26 11:03:13;;;;;;;9.30;7.70;;;;;;;15.02;55.70;99197.02;108077;1254;61097;-72
2023/03/26 11:06:18;;;;;;;12.00;8.70;;;;;;;15.02;55.01;99194.27;108163;1254;75710;-72
2023/03/26 11:08:56;;;;;;;10.20;8.30;;;;;;;15.01;54.08;99193.39;108158;1254;73465;-72
2023/03/26 11:11:30;;;;;;;10.20;8.10;;;;;;;14.97;53.89;99196.27;108202;1254;70887;-71
2023/03/26 11:14:20;;;;;;;10.00;8.20;;;;;;;14.91;53.99;99190.55;108161;1254;61609;-71
2023/03/26 11:17:32;;;;;;;11.50;8.30;;;;;;;14.85;54.26;99188.23;108185;1253;61182;-71
2023/03/26 11:20:23;;;;;;;9.40;7.80;;;;;;;14.84;54.68;99185.46;108129;1255;74900;-73
2023/03/26 11:23:27;;;;;;;10.70;8.10;;;;;;;14.81;54.81;99187.21;108092;1257;72872;-72
2023/03/26 11:26:30;;;;;;;11.40;7.60;;;;;;;14.82;54.85;99187.79;108061;1254;71823;-71
2023/03/26 11:29:32;;;;;;;9.10;7.20;;;;;;;14.84;54.33;99187.34;107883;1254;61511;-74
2023/03/26 11:32:23;;;;;;;;;;;;;;;14.83;54.14;99189.09;108174;1254;61198;-73
2023/03/26 11:35:24;;;;;;;10.80;7.50;;;;;;;14.89;54.07;99183.95;108079;1254;73539;-72
2023/03/26 11:38:20;;;;;;;10.10;7.10;;;;;;;15.00;53.80;99182.13;108198;1254;72108;-74
2023/03/26 11:40:51;;;;;;;8.30;6.60;;;;;;;15.05;53.51;99183.41;108143;1253;73644;-72
2023/03/26 11:43:38;;;;;;;9.20;6.40;;;;;;;15.10;53.57;99178.20;108044;1254;61370;-73
2023/03/26 11:46:08;;;;;;;8.10;5.60;;;;;;;15.13;53.48;99182.04;108160;1254;61134;-71
2023/03/26 11:48:41;;;;;;;7.40;5.70;;;;;;;15.15;53.24;99179.43;107974;1253;73807;-73
2023/03/26 11:51:32;;;;;;;9.60;6.20;;;;;;;15.17;53.47;99178.23;108081;1254;73582;-72
2023/03/26 11:54:04;;;;;;;11.90;7.80;;;;;;;15.22;53.63;99180.91;108108;1254;72168;-72
2023/03/26 11:56:36;;;;;;;10.80;7.10;;;;;;;15.29;53.68;99178.02;108281;1254;61265;-72
2023/03/26 11:59:22;;;;;;;11.80;7.70;;;;;;;15.38;53.78;99176.06;108110;1254;61247;-72
2023/03/26 12:02:16;;;;;;;10.80;7.40;;;;;;;15.48;53.17;99166.27;108098;1254;75351;-72
2023/03/26 12:04:45;;;;;;;11.00;6.20;;;;;;;15.62;52.45;99167.95;108044;1254;72942;-72
2023/03/26 12:07:19;;;;;;;10.40;6.20;;;;;;;15.67;51.14;99165.36;107955;1259;71789;-72
2023/03/26 12:10:00;;;;;;;12.20;6.50;;;;;;;15.64;50.27;99164.16;108158;1256;60377;-73
2023/03/26 12:12:49;;;;;;;7.60;4.40;;;;;;;15.55;50.15;99161.21;108214;1254;61319;-72
2023/03/26 12:15:17;;;;;;;9.60;5.00;;;;;;;15.47;50.19;99162.66;107863;1254;74745;-72
2023/03/26 12:17:46;;;;;;;8.00;4.90;;;;;;;15.39;50.38;99160.58;108190;1254;73054;-72
2023/03/26 12:20:26;;;;;;;7.30;4.50;;;;;;;15.36;50.73;99164.90;108222;1254;73873;-72
2023/03/26 12:23:00;;;;;;;8.90;4.50;;;;;;;15.39;51.36;99161.29;108172;1254;60550;-72
2023/03/26 12:25:32;;;;;;;9.40;5.00;;;;;;;15.48;51.44;99158.10;108201;1254;61572;-72
2023/03/26 12:28:04;;;;;;;12.60;6.60;;;;;;;15.61;51.53;99158.95;108269;1254;73988;-72
2023/03/26 12:30:38;;;;;;;9.80;5.30;;;;;;;15.78;51.11;99154.23;108185;1254;73952;-72
2023/03/26 12:33:24;;;;;;;6.90;3.60;;;;;;;15.96;50.44;99155.80;108092;1254;72739;-73
2023/03/26 12:35:53;;;;;;;5.90;2.80;;;;;;;16.07;48.17;99149.13;108009;1253;60687;-71